Cathma — PJTL — position and weather

sailwx.info

Track history (hours):
 
Tides and Currents Weather Stations Pressure Air Temp Water Temp Dewpoint Dewpoint Depression Visibility Wind Speed Wind Dir Waves Ship Positions

Cathma

Last reported at 2015-Jan-27 22:33 UTC. Time now 2015-Jan-27 23:04 UTC.
Position N 54°18' E 009°43'.

Length 111 m; draft 6 m.

Type: Ship. MMSI: 306832000.

Date/timePositionNaut miles runAvg speedWind from/ knotsBaromVisibWave heightAir tempDewpointWater temp
2015-Jan-27 22:33N 54°18' E 009°43'7 7.1
2015-Jan-27 21:33N 54°21' E 009°54'6 6.2
2015-Jan-27 20:33N 54°22' E 010°04'2 2.3
2015-Jan-27 19:33N 54°22' E 010°08'6 6.3
2015-Jan-27 18:33N 54°27' E 010°14'1010.1
2015-Jan-27 17:33N 54°33' E 010°29'2210.8
2015-Jan-27 15:29N 54°36' E 011°07'1010.7
2015-Jan-27 14:33N 54°33' E 011°23'1110.7
2015-Jan-27 13:33N 54°29' E 011°40'1110.6
2015-Jan-27 12:33N 54°27' E 011°58'9 9.4
2015-Jan-27 11:33N 54°31' E 012°12'1310.5
2015-Jan-27 10:17N 54°41' E 012°28'2910.6
2015-Jan-27 07:33N 54°54' E 013°13'1110.7
2015-Jan-27 06:33N 54°58' E 013°30'4210.5
2015-Jan-27 02:33N 55°23' E 014°29'1110.9
2015-Jan-27 01:31N 55°30' E 014°44'1110.8
2015-Jan-27 00:28N 55°36' E 015°02'125 8.8
2015-Jan-26 10:21N 57°11' E 017°27'15 6.7
2015-Jan-26 08:04N 57°25' E 017°38'  
Track history (hours):
 
Tides and Currents Weather Stations Pressure Air Temp Water Temp Dewpoint Dewpoint Depression Visibility Wind Speed Wind Dir Waves Ship Positions

Cathma

Last reported at 2015-Jan-27 22:33 UTC. Time now 2015-Jan-27 23:04 UTC.
Position N 54°18' E 009°43'.

Length 111 m; draft 6 m.

Type: Ship. MMSI: 306832000.

Date/timePositionNaut miles runAvg speedWind from/ knotsBaromVisibWave heightAir tempDewpointWater temp
2015-Jan-27 22:33N 54°18' E 009°43'7 7.1
2015-Jan-27 21:33N 54°21' E 009°54'6 6.2
2015-Jan-27 20:33N 54°22' E 010°04'2 2.3
2015-Jan-27 19:33N 54°22' E 010°08'6 6.3
2015-Jan-27 18:33N 54°27' E 010°14'1010.1
2015-Jan-27 17:33N 54°33' E 010°29'2210.8
2015-Jan-27 15:29N 54°36' E 011°07'1010.7
2015-Jan-27 14:33N 54°33' E 011°23'1110.7
2015-Jan-27 13:33N 54°29' E 011°40'1110.6
2015-Jan-27 12:33N 54°27' E 011°58'9 9.4
2015-Jan-27 11:33N 54°31' E 012°12'1310.5
2015-Jan-27 10:17N 54°41' E 012°28'2910.6
2015-Jan-27 07:33N 54°54' E 013°13'1110.7
2015-Jan-27 06:33N 54°58' E 013°30'4210.5
2015-Jan-27 02:33N 55°23' E 014°29'1110.9
2015-Jan-27 01:31N 55°30' E 014°44'1110.8
2015-Jan-27 00:28N 55°36' E 015°02'125 8.8
2015-Jan-26 10:21N 57°11' E 017°27'15 6.7
2015-Jan-26 08:04N 57°25' E 017°38'  

Dump ship's entire track history